Time;durP1;ratioP1;P1;durP2;ratioP2;P2;SDS_P1;SDS_P2;PMS_P1;PMS_P2;Temp;Humidity;BMP_temperature;BMP_pressure;BME280_temperature;BME280_humidity;BME280_pressure;Samples;Min_cycle;Max_cycle;Signal;HPM_P1;HPM_P2
2023/01/24 00:00:44;;;;;;;4.22;2.80;;;6.10;73.10;;;;;;5089378;28;20031;-62
2023/01/24 00:03:13;;;;;;;3.40;3.08;;;6.10;73.30;;;;;;5089372;28;20028;-63
2023/01/24 00:05:40;;;;;;;7.88;4.60;;;6.10;73.30;;;;;;5095535;28;20024;-63
2023/01/24 00:08:05;;;;;;;7.05;3.35;;;6.00;73.20;;;;;;5090185;28;20032;-62
2023/01/24 00:10:32;;;;;;;4.47;3.40;;;6.00;73.30;;;;;;5069306;28;20459;-62
2023/01/24 00:12:58;;;;;;;5.72;3.33;;;6.00;73.30;;;;;;5087167;28;20027;-63
2023/01/24 00:15:24;;;;;;;5.55;3.15;;;6.00;73.40;;;;;;5092821;28;20031;-63
2023/01/24 00:17:50;;;;;;;4.95;2.70;;;6.00;73.40;;;;;;5090347;28;20024;-63
2023/01/24 00:20:16;;;;;;;4.38;2.75;;;6.00;73.30;;;;;;5088729;28;20039;-68
2023/01/24 00:22:42;;;;;;;4.80;3.15;;;6.00;73.30;;;;;;5088897;28;20035;-67
2023/01/24 00:25:08;;;;;;;7.53;3.05;;;6.00;73.20;;;;;;5089897;28;20052;-63
2023/01/24 00:27:34;;;;;;;5.93;2.80;;;6.00;73.10;;;;;;5088105;28;20110;-63
2023/01/24 00:30:01;;;;;;;4.55;3.03;;;6.00;73.10;;;;;;5088251;28;20490;-67
2023/01/24 00:32:27;;;;;;;4.18;3.15;;;6.00;72.90;;;;;;5090001;28;20027;-63
2023/01/24 00:34:52;;;;;;;4.50;2.67;;;6.00;72.80;;;;;;5099036;28;20031;-68
2023/01/24 00:37:18;;;;;;;5.45;2.80;;;6.10;72.90;;;;;;5082192;28;20086;-68
2023/01/24 00:39:44;;;;;;;5.90;3.05;;;6.10;72.90;;;;;;5073536;28;20082;-68
2023/01/24 00:42:09;;;;;;;4.80;2.45;;;6.00;72.70;;;;;;5090040;28;20130;-63
2023/01/24 00:44:37;;;;;;;3.63;2.30;;;6.00;72.80;;;;;;5087875;28;20112;-68
2023/01/24 00:47:03;;;;;;;4.78;2.65;;;6.00;72.90;;;;;;5088267;28;20475;-68
2023/01/24 00:49:28;;;;;;;4.85;2.30;;;6.00;72.90;;;;;;5055187;28;20024;-64
2023/01/24 00:51:54;;;;;;;4.30;3.20;;;6.00;72.90;;;;;;5071917;28;20077;-68
2023/01/24 00:54:20;;;;;;;6.47;3.63;;;6.00;72.90;;;;;;5090520;28;20131;-63
2023/01/24 00:56:46;;;;;;;5.22;3.08;;;6.00;72.90;;;;;;5070023;28;20032;-63
2023/01/24 00:59:12;;;;;;;4.05;3.38;;;5.90;72.80;;;;;;5091421;28;20028;-62
2023/01/24 01:01:37;;;;;;;5.15;3.20;;;5.90;72.90;;;;;;5094526;28;20046;-63
2023/01/24 01:04:03;;;;;;;6.35;3.58;;;5.90;72.90;;;;;;5093209;28;20024;-63
2023/01/24 01:06:29;;;;;;;5.47;3.22;;;6.00;72.90;;;;;;5051603;28;20127;-63
2023/01/24 01:08:55;;;;;;;5.65;2.83;;;6.00;72.90;;;;;;5092346;28;20022;-67
2023/01/24 01:11:21;;;;;;;5.70;3.33;;;6.00;72.90;;;;;;5070944;28;20035;-67
2023/01/24 01:13:48;;;;;;;4.95;3.00;;;6.00;72.90;;;;;;5079876;28;20028;-67
2023/01/24 01:16:17;;;;;;;5.10;3.35;;;5.90;72.80;;;;;;5093536;28;20051;-63
2023/01/24 01:18:43;;;;;;;6.13;3.10;;;6.00;72.90;;;;;;5088616;28;20047;-67
2023/01/24 01:21:12;;;;;;;6.82;3.35;;;6.00;73.00;;;;;;5073033;28;20032;-67
2023/01/24 01:23:37;;;;;;;7.60;3.97;;;6.00;72.90;;;;;;5094664;28;20024;-67
2023/01/24 01:26:06;;;;;;;5.05;2.97;;;5.90;73.10;;;;;;5088698;28;20351;-67
2023/01/24 01:28:32;;;;;;;3.67;2.80;;;5.90;73.20;;;;;;5090235;28;20052;-66
2023/01/24 01:30:58;;;;;;;5.05;3.20;;;5.90;73.70;;;;;;5093015;28;20144;-62
2023/01/24 01:33:24;;;;;;;5.78;3.83;;;5.90;73.20;;;;;;5094935;28;20036;-67
2023/01/24 01:35:51;;;;;;;6.20;3.60;;;5.90;73.20;;;;;;5093630;28;20085;-67
2023/01/24 01:38:17;;;;;;;6.15;3.38;;;5.90;73.10;;;;;;5093151;28;20028;-67
2023/01/24 01:40:43;;;;;;;6.53;3.35;;;5.90;73.10;;;;;;5095328;28;20076;-63
2023/01/24 01:43:18;;;;;;;3.63;2.60;;;5.90;73.10;;;;;;5092022;28;20573;-68
2023/01/24 01:45:46;;;;;;;5.45;3.33;;;5.80;73.20;;;;;;5093872;28;20531;-68
2023/01/24 01:48:53;;;;;;;7.15;4.15;;;5.80;73.40;;;;;;5091346;28;20709;-63
2023/01/24 01:51:31;;;;;;;5.38;3.40;;;5.80;73.40;;;;;;5034874;28;20407;-63
2023/01/24 01:54:04;;;;;;;4.47;3.28;;;5.80;73.40;;;;;;5089358;28;20020;-63
2023/01/24 01:56:59;;;;;;;6.40;2.92;;;5.80;73.50;;;;;;5104186;28;20068;-63
2023/01/24 01:59:30;;;;;;;4.35;3.15;;;5.90;73.50;;;;;;5092172;28;20081;-63
2023/01/24 02:01:59;;;;;;;6.78;3.28;;;5.80;73.40;;;;;;5090695;28;20020;-63
2023/01/24 02:04:36;;;;;;;7.00;4.28;;;5.80;73.50;;;;;;5092420;28;20042;-68
2023/01/24 02:07:14;;;;;;;5.88;3.42;;;5.80;73.50;;;;;;5071063;28;20043;-63
2023/01/24 02:09:41;;;;;;;4.07;3.17;;;5.80;73.50;;;;;;5091251;28;20564;-63
2023/01/24 02:12:21;;;;;;;3.92;3.45;;;5.80;73.50;;;;;;5089584;28;20030;-63
2023/01/24 02:17:35;;;;;;;5.93;3.80;;;5.90;73.40;;;;;;5091126;28;20371;-63
2023/01/24 02:20:23;;;;;;;6.38;4.03;;;5.90;73.40;;;;;;5073034;28;20024;-67
2023/01/24 02:22:58;;;;;;;5.95;3.38;;;5.90;73.30;;;;;;5094672;28;20020;-67
2023/01/24 02:26:00;;;;;;;9.88;4.65;;;5.80;73.40;;;;;;5090988;28;20277;-63
2023/01/24 02:28:26;;;;;;;5.67;3.57;;;5.90;73.40;;;;;;5085821;28;20048;-63
2023/01/24 02:30:55;;;;;;;7.20;3.38;;;5.90;73.50;;;;;;5072690;28;20042;-63
2023/01/24 02:33:21;;;;;;;7.50;3.60;;;5.90;73.40;;;;;;5093268;28;20032;-62
2023/01/24 02:35:47;;;;;;;6.95;4.43;;;5.90;73.40;;;;;;5091227;28;20383;-62
2023/01/24 02:38:26;;;;;;;8.35;4.47;;;5.90;73.30;;;;;;5091461;28;20028;-67
2023/01/24 02:41:06;;;;;;;6.63;4.90;;;5.90;73.40;;;;;;5090457;28;20032;-68
2023/01/24 02:43:35;;;;;;;5.85;3.70;;;5.90;73.50;;;;;;5089182;28;20020;-62
2023/01/24 02:46:01;;;;;;;8.95;4.32;;;5.80;73.60;;;;;;5069097;28;20028;-62
2023/01/24 02:48:27;;;;;;;8.48;4.07;;;5.80;73.60;;;;;;5094251;28;20032;-67
2023/01/24 02:53:36;;;;;;;5.28;4.05;;;5.80;73.70;;;;;;5080026;28;20089;-67
2023/01/24 02:58:53;;;;;;;5.53;3.50;;;5.70;73.80;;;;;;5093115;28;20035;-67
2023/01/24 03:01:21;;;;;;;6.80;4.13;;;5.70;73.80;;;;;;5088955;28;20038;-62
2023/01/24 03:03:47;;;;;;;5.28;4.07;;;5.70;73.90;;;;;;5091766;28;20016;-62
2023/01/24 03:06:15;;;;;;;8.57;4.85;;;5.70;73.90;;;;;;5091221;28;20875;-63
2023/01/24 03:08:41;;;;;;;6.88;4.50;;;5.60;74.00;;;;;;5095893;28;20135;-63
2023/01/24 03:11:08;;;;;;;5.70;4.10;;;5.70;74.00;;;;;;5089692;28;20464;-68
2023/01/24 03:35:32;;;;;;;8.82;4.93;;;5.50;74.10;;;;;;5069057;28;20038;-58
2023/01/24 03:40:42;;;;;;;8.43;5.35;;;5.50;74.20;;;;;;5089914;28;20043;-64
2023/01/24 03:43:08;;;;;;;8.05;4.53;;;5.60;74.20;;;;;;5092861;28;20371;-64
2023/01/24 03:45:36;;;;;;;9.95;4.85;;;5.60;74.20;;;;;;5103236;28;20498;-64
2023/01/24 03:48:14;;;;;;;6.70;4.97;;;5.60;74.20;;;;;;5093341;28;20020;-61
2023/01/24 03:53:29;;;;;;;4.90;3.58;;;5.50;74.20;;;;;;5097187;28;20477;-65
2023/01/24 03:55:57;;;;;;;8.23;5.40;;;5.50;74.20;;;;;;5099936;28;20024;-63
2023/01/24 03:58:24;;;;;;;10.02;4.85;;;5.50;74.20;;;;;;5071319;28;20028;-68
2023/01/24 04:00:50;;;;;;;7.45;4.95;;;5.60;74.30;;;;;;5094015;28;20061;-62
2023/01/24 04:03:15;;;;;;;9.07;6.07;;;5.60;74.20;;;;;;5094399;28;20023;-67
2023/01/24 04:05:41;;;;;;;8.45;5.60;;;5.60;74.20;;;;;;5096323;28;20043;-68
2023/01/24 04:08:07;;;;;;;8.23;5.13;;;5.60;74.30;;;;;;5100538;28;20028;-67
2023/01/24 04:10:34;;;;;;;6.00;4.30;;;5.50;74.30;;;;;;5094308;28;20032;-67
2023/01/24 04:13:00;;;;;;;8.85;5.55;;;5.50;74.40;;;;;;5105075;28;20028;-67
2023/01/24 04:15:29;;;;;;;7.72;5.13;;;5.50;74.30;;;;;;5085011;28;20474;-68
2023/01/24 04:18:01;;;;;;;8.07;4.50;;;5.60;74.40;;;;;;5079416;28;20410;-67
2023/01/24 04:20:29;;;;;;;7.88;5.05;;;5.60;74.40;;;;;;5087237;28;20110;-62
2023/01/24 04:22:55;;;;;;;6.18;5.47;;;5.60;74.40;;;;;;5100090;28;20035;-67
2023/01/24 04:25:21;;;;;;;7.25;5.45;;;5.50;74.40;;;;;;5084174;28;20040;-67
2023/01/24 04:27:47;;;;;;;8.27;5.18;;;5.60;74.40;;;;;;5084766;28;20040;-67
2023/01/24 04:30:15;;;;;;;8.02;4.88;;;5.60;74.40;;;;;;5098936;28;20035;-67
2023/01/24 04:32:41;;;;;;;6.43;3.88;;;5.60;74.40;;;;;;5097381;28;20050;-67
2023/01/24 04:35:09;;;;;;;9.05;5.90;;;5.60;74.40;;;;;;5071641;28;20123;-63
2023/01/24 04:37:35;;;;;;;8.98;4.95;;;5.60;74.40;;;;;;5084543;28;20035;-68
2023/01/24 04:40:01;;;;;;;4.95;4.40;;;5.60;74.40;;;;;;5101729;28;20570;-63
2023/01/24 04:42:27;;;;;;;10.93;5.60;;;5.60;74.50;;;;;;5095748;28;20047;-63
2023/01/24 04:44:52;;;;;;;9.88;5.63;;;5.50;74.50;;;;;;5096758;28;20076;-63
2023/01/24 04:47:18;;;;;;;10.95;7.20;;;5.40;74.60;;;;;;5100445;28;20024;-67
2023/01/24 04:49:44;;;;;;;16.80;6.93;;;5.40;74.60;;;;;;5100644;28;20092;-68
2023/01/24 04:52:13;;;;;;;9.60;5.60;;;5.40;74.60;;;;;;5095436;28;20177;-62
2023/01/24 04:54:39;;;;;;;8.05;5.13;;;5.40;74.60;;;;;;5091765;28;20526;-63
2023/01/24 04:57:06;;;;;;;6.85;4.85;;;5.40;74.80;;;;;;5090945;28;20119;-63
2023/01/24 04:59:31;;;;;;;9.40;5.18;;;5.40;74.70;;;;;;5065806;28;20028;-62
2023/01/24 05:01:57;;;;;;;7.97;5.38;;;5.30;74.70;;;;;;5092098;28;20470;-67
2023/01/24 05:04:23;;;;;;;5.72;4.47;;;5.30;74.70;;;;;;5098423;28;20099;-67
2023/01/24 05:06:48;;;;;;;9.57;6.65;;;5.30;74.80;;;;;;5091620;28;20025;-63
2023/01/24 05:09:14;;;;;;;8.55;5.85;;;5.30;74.80;;;;;;5105055;28;20036;-67
2023/01/24 05:11:40;;;;;;;6.60;5.40;;;5.30;74.80;;;;;;5072685;28;20040;-63
2023/01/24 05:14:09;;;;;;;7.38;5.65;;;5.30;74.80;;;;;;5086154;28;20028;-68
2023/01/24 05:16:34;;;;;;;6.70;4.80;;;5.40;74.80;;;;;;5088344;28;20035;-68
2023/01/24 05:19:00;;;;;;;7.45;4.82;;;5.40;74.80;;;;;;5087052;28;20085;-67
2023/01/24 05:21:26;;;;;;;9.50;5.05;;;5.40;74.80;;;;;;5091608;28;20107;-67
2023/01/24 05:23:52;;;;;;;6.80;5.13;;;5.40;74.80;;;;;;5091989;28;20023;-63
2023/01/24 05:26:19;;;;;;;8.60;5.10;;;5.40;74.80;;;;;;5097719;28;20435;-67
2023/01/24 05:28:45;;;;;;;8.07;4.78;;;5.30;74.90;;;;;;5084158;28;20060;-63
2023/01/24 05:31:10;;;;;;;9.02;5.80;;;5.30;74.90;;;;;;5094476;28;20117;-67
2023/01/24 05:33:36;;;;;;;9.07;5.78;;;5.30;74.90;;;;;;5094620;28;20032;-67
2023/01/24 05:36:05;;;;;;;10.13;5.72;;;5.20;75.00;;;;;;5092870;28;20048;-67
2023/01/24 05:38:31;;;;;;;9.80;5.88;;;5.30;75.00;;;;;;5090910;28;20024;-67
2023/01/24 05:41:02;;;;;;;8.45;5.10;;;5.30;74.90;;;;;;5073135;28;20032;-67
2023/01/24 05:43:29;;;;;;;8.00;5.20;;;5.30;74.90;;;;;;5091615;28;20008;-63
2023/01/24 05:46:03;;;;;;;7.97;5.10;;;5.30;74.90;;;;;;5089554;28;20120;-68
2023/01/24 05:48:29;;;;;;;9.52;6.15;;;5.40;74.80;;;;;;5089067;28;20035;-68
2023/01/24 05:51:00;;;;;;;11.65;5.60;;;5.30;74.80;;;;;;5070726;28;20074;-63
2023/01/24 05:53:27;;;;;;;7.68;4.95;;;5.40;74.80;;;;;;5086992;28;20020;-67
2023/01/24 05:56:01;;;;;;;9.98;4.60;;;5.40;74.80;;;;;;5088424;28;20020;-68
2023/01/24 05:58:29;;;;;;;8.95;5.03;;;5.40;74.70;;;;;;5072380;28;20023;-64
2023/01/24 06:00:55;;;;;;;7.38;5.32;;;5.40;74.80;;;;;;5087695;28;20024;-63
2023/01/24 06:03:21;;;;;;;9.65;5.03;;;5.40;74.70;;;;;;5086670;28;20028;-67
2023/01/24 06:05:56;;;;;;;6.85;4.75;;;5.40;74.80;;;;;;5094034;28;20506;-67
2023/01/24 06:08:22;;;;;;;7.70;5.15;;;5.50;74.80;;;;;;5088043;28;20028;-63
2023/01/24 06:10:48;;;;;;;7.82;5.25;;;5.40;74.80;;;;;;5089767;28;20035;-63
2023/01/24 06:13:13;;;;;;;6.53;4.38;;;5.40;74.80;;;;;;5098204;28;20031;-63
2023/01/24 06:15:40;;;;;;;9.15;5.88;;;5.40;74.80;;;;;;5099895;28;20312;-63
2023/01/24 06:18:07;;;;;;;7.15;5.18;;;5.40;74.80;;;;;;5098639;28;20023;-67
2023/01/24 06:20:33;;;;;;;6.70;4.63;;;5.40;74.90;;;;;;5107939;28;20122;-68
2023/01/24 06:23:06;;;;;;;10.25;5.30;;;5.30;74.90;;;;;;5093694;28;20024;-67
2023/01/24 06:25:33;;;;;;;7.40;5.15;;;5.30;74.90;;;;;;5066961;28;20032;-67
2023/01/24 06:27:59;;;;;;;10.23;6.00;;;5.30;74.90;;;;;;5082299;28;20063;-67
2023/01/24 06:30:26;;;;;;;7.22;5.05;;;5.30;74.90;;;;;;5083231;28;20035;-68
2023/01/24 06:33:32;;;;;;;8.30;5.18;;;5.40;74.90;;;;;;5094630;28;20628;-68
2023/01/24 06:36:14;;;;;;;8.70;5.15;;;5.40;74.80;;;;;;5104293;28;20077;-63
2023/01/24 06:38:40;;;;;;;9.02;5.72;;;5.40;74.90;;;;;;5097335;28;20414;-63
2023/01/24 06:41:14;;;;;;;7.47;5.45;;;5.40;74.90;;;;;;5106058;28;20015;-63
2023/01/24 06:43:40;;;;;;;8.27;5.32;;;5.40;74.90;;;;;;5098186;28;20023;-64
2023/01/24 06:46:07;;;;;;;6.78;4.47;;;5.40;74.90;;;;;;5080341;28;20038;-63
2023/01/24 06:48:33;;;;;;;9.82;6.10;;;5.40;74.90;;;;;;5096791;28;20028;-63
2023/01/24 06:50:59;;;;;;;9.98;5.68;;;5.40;74.90;;;;;;5097101;28;20026;-63
2023/01/24 06:53:25;;;;;;;9.07;5.68;;;5.30;74.90;;;;;;5080679;28;20032;-63
2023/01/24 06:55:50;;;;;;;7.47;4.85;;;5.30;75.00;;;;;;5093902;28;20020;-63
2023/01/24 06:58:16;;;;;;;7.57;5.28;;;5.30;75.00;;;;;;5076460;28;20034;-63
2023/01/24 07:00:42;;;;;;;9.90;5.60;;;5.20;75.60;;;;;;5092563;28;20119;-63
2023/01/24 07:03:08;;;;;;;7.95;5.72;;;5.20;75.10;;;;;;5092917;28;20075;-63
2023/01/24 07:05:35;;;;;;;10.35;6.30;;;5.20;75.00;;;;;;5075858;28;20031;-63
2023/01/24 07:08:01;;;;;;;7.30;4.90;;;5.20;75.10;;;;;;5087607;28;20024;-62
2023/01/24 07:10:28;;;;;;;12.15;5.70;;;5.20;75.10;;;;;;5111220;28;20386;-62
2023/01/24 07:12:54;;;;;;;8.88;6.10;;;5.20;75.10;;;;;;5103946;28;20036;-63
2023/01/24 07:15:20;;;;;;;9.98;5.65;;;5.20;75.10;;;;;;5106281;28;20032;-63
2023/01/24 07:17:46;;;;;;;10.25;5.18;;;5.20;75.10;;;;;;5089809;28;20376;-63
2023/01/24 07:20:13;;;;;;;7.88;5.28;;;5.10;75.10;;;;;;5101956;28;20031;-63
2023/01/24 07:22:40;;;;;;;9.63;5.50;;;5.10;75.20;;;;;;5091777;28;20030;-63
2023/01/24 07:25:28;;;;;;;8.07;5.53;;;5.10;75.30;;;;;;5091069;28;20107;-68
2023/01/24 07:27:54;;;;;;;10.15;6.30;;;5.10;75.30;;;;;;5074727;28;20402;-68
2023/01/24 07:30:20;;;;;;;8.57;6.13;;;5.10;75.30;;;;;;5078500;28;20039;-67
2023/01/24 07:32:46;;;;;;;9.93;5.50;;;5.10;75.30;;;;;;5091016;28;20032;-68
2023/01/24 07:35:11;;;;;;;7.93;5.22;;;5.20;75.30;;;;;;5078769;28;20032;-68
2023/01/24 07:37:37;;;;;;;10.27;5.70;;;5.20;75.30;;;;;;5092271;28;20458;-68
2023/01/24 07:40:03;;;;;;;10.93;5.68;;;5.20;75.40;;;;;;5098541;28;20065;-68
2023/01/24 07:42:29;;;;;;;8.85;5.25;;;5.10;75.40;;;;;;5089259;28;20471;-68
2023/01/24 07:44:56;;;;;;;9.68;7.13;;;5.10;75.40;;;;;;5072585;28;20039;-63
2023/01/24 07:47:23;;;;;;;8.45;5.15;;;5.10;75.30;;;;;;5099041;28;20550;-68
2023/01/24 07:49:48;;;;;;;13.07;6.30;;;5.10;75.40;;;;;;5089582;28;20444;-67
2023/01/24 07:52:14;;;;;;;8.50;5.50;;;5.10;75.40;;;;;;5098087;28;20119;-67
2023/01/24 07:54:40;;;;;;;13.27;6.97;;;5.10;75.30;;;;;;5091063;28;20067;-68
2023/01/24 07:57:07;;;;;;;8.45;6.18;;;5.10;75.40;;;;;;5093787;28;20051;-67
2023/01/24 07:59:33;;;;;;;8.05;6.38;;;5.00;75.40;;;;;;5090546;28;20043;-68
2023/01/24 08:01:59;;;;;;;6.35;5.15;;;5.00;75.50;;;;;;5090719;28;20479;-67
2023/01/24 08:04:24;;;;;;;8.43;5.90;;;5.10;75.50;;;;;;5089853;28;20070;-68
2023/01/24 08:09:34;;;;;;;9.90;6.90;;;5.10;75.40;;;;;;5084292;28;20050;-67
2023/01/24 08:11:59;;;;;;;8.68;5.88;;;5.10;75.30;;;;;;5072597;28;20012;-68
2023/01/24 08:14:25;;;;;;;10.27;4.97;;;5.20;75.40;;;;;;5090074;28;20020;-67
2023/01/24 08:16:51;;;;;;;9.75;5.60;;;5.20;75.30;;;;;;5089310;28;20051;-68
2023/01/24 08:19:17;;;;;;;8.50;5.57;;;5.20;75.30;;;;;;5085878;28;20438;-67
2023/01/24 08:21:42;;;;;;;11.15;5.97;;;5.20;75.30;;;;;;5093909;28;20029;-68
2023/01/24 08:24:08;;;;;;;7.43;4.82;;;5.20;75.30;;;;;;5066257;28;20021;-68
2023/01/24 08:26:34;;;;;;;10.88;5.97;;;5.30;75.30;;;;;;5104362;28;20059;-66
2023/01/24 08:29:00;;;;;;;9.35;4.95;;;5.30;75.30;;;;;;5093429;28;20028;-66
2023/01/24 08:31:25;;;;;;;9.95;6.57;;;5.30;75.30;;;;;;5099192;28;20039;-65
2023/01/24 08:33:51;;;;;;;9.82;6.30;;;5.30;75.20;;;;;;5076727;28;20447;-65
2023/01/24 08:36:19;;;;;;;8.23;5.55;;;5.30;75.10;;;;;;5101032;28;20364;-66
2023/01/24 08:38:45;;;;;;;11.43;5.28;;;5.30;75.20;;;;;;5092053;28;20040;-66
2023/01/24 08:41:11;;;;;;;8.63;5.13;;;5.30;75.30;;;;;;5100161;28;20030;-69
2023/01/24 08:43:37;;;;;;;8.70;5.93;;;5.30;75.90;;;;;;5078070;28;20016;-64
2023/01/24 08:46:03;;;;;;;8.73;5.18;;;5.30;75.30;;;;;;5061605;28;20032;-64
2023/01/24 08:48:29;;;;;;;9.95;5.82;;;5.30;75.30;;;;;;5104121;28;20028;-63
2023/01/24 08:50:55;;;;;;;6.65;4.30;;;5.30;75.30;;;;;;5100585;28;20106;-64
2023/01/24 08:53:20;;;;;;;8.57;5.70;;;5.30;75.20;;;;;;5099882;28;20171;-62
2023/01/24 08:55:49;;;;;;;6.95;4.50;;;5.20;75.20;;;;;;5090414;28;20108;-69
2023/01/24 08:58:16;;;;;;;7.53;4.90;;;5.20;75.20;;;;;;5085404;28;20029;-69
2023/01/24 09:00:42;;;;;;;8.98;6.25;;;5.20;75.30;;;;;;5089692;28;20367;-71
2023/01/24 09:03:10;;;;;;;6.72;4.97;;;5.20;75.30;;;;;;5090396;28;20038;-64
2023/01/24 09:05:38;;;;;;;8.75;5.35;;;5.20;75.20;;;;;;5110040;28;20024;-64
2023/01/24 09:08:04;;;;;;;11.38;5.35;;;5.20;75.20;;;;;;5100421;28;20035;-64
2023/01/24 09:10:30;;;;;;;7.47;5.20;;;5.20;75.20;;;;;;5066253;28;20035;-69
2023/01/24 09:12:56;;;;;;;12.02;5.32;;;5.20;75.10;;;;;;5095533;28;20433;-67
2023/01/24 09:15:21;;;;;;;6.28;4.63;;;5.20;75.10;;;;;;5081337;28;20028;-69
2023/01/24 09:17:47;;;;;;;6.35;4.70;;;5.20;75.10;;;;;;5091460;28;20089;-72
2023/01/24 09:20:13;;;;;;;6.95;4.68;;;5.20;75.10;;;;;;5097960;28;20039;-63
2023/01/24 09:22:39;;;;;;;7.97;4.78;;;5.20;75.00;;;;;;5102429;28;20034;-62
2023/01/24 09:25:07;;;;;;;9.38;5.78;;;5.20;75.00;;;;;;5104499;28;20132;-66
2023/01/24 09:27:33;;;;;;;10.55;6.25;;;5.20;74.90;;;;;;5077522;28;20063;-63
2023/01/24 09:29:59;;;;;;;6.38;4.75;;;5.20;74.90;;;;;;5094906;28;20182;-65
2023/01/24 09:32:25;;;;;;;9.90;5.53;;;5.20;74.90;;;;;;5080078;28;20115;-65
2023/01/24 09:34:51;;;;;;;8.48;6.00;;;5.30;74.80;;;;;;5092101;28;20419;-72
2023/01/24 09:37:20;;;;;;;7.95;5.22;;;5.30;74.70;;;;;;5091391;28;20364;-63
2023/01/24 09:39:46;;;;;;;7.65;5.20;;;5.30;74.70;;;;;;5092856;28;20028;-64
2023/01/24 09:42:27;;;;;;;12.02;6.47;;;5.30;74.80;;;;;;5076828;28;20129;-73
2023/01/24 09:45:17;;;;;;;9.32;5.57;;;5.30;74.70;;;;;;5095014;28;20024;-72
2023/01/24 09:47:59;;;;;;;6.25;5.43;;;5.30;74.60;;;;;;5092945;28;20496;-72
2023/01/24 09:50:49;;;;;;;9.32;5.45;;;5.30;74.70;;;;;;5079508;28;20032;-63
2023/01/24 09:53:42;;;;;;;8.85;5.95;;;5.30;74.70;;;;;;5099666;28;20073;-64
2023/01/24 09:56:26;;;;;;;8.13;4.78;;;5.30;74.60;;;;;;5089635;28;20028;-70
2023/01/24 09:59:21;;;;;;;12.90;6.70;;;5.30;74.60;;;;;;5091354;28;20024;-72
2023/01/24 10:01:49;;;;;;;7.95;5.07;;;5.30;74.40;;;;;;5098915;28;20068;-63
2023/01/24 10:04:37;;;;;;;11.50;6.20;;;5.30;74.60;;;;;;5089169;28;20020;-73
2023/01/24 10:07:30;;;;;;;8.13;5.47;;;5.30;74.50;;;;;;5091572;28;20063;-63
2023/01/24 10:10:05;;;;;;;;;;;5.30;74.50;;;;;;5080724;28;20062;-63
2023/01/24 10:12:41;;;;;;;5.97;4.78;;;5.30;74.40;;;;;;5094165;28;20346;-63
2023/01/24 10:15:32;;;;;;;7.47;5.05;;;5.30;74.50;;;;;;5093039;28;20020;-63
2023/01/24 10:18:22;;;;;;;7.80;4.90;;;5.30;74.40;;;;;;5091555;28;20019;-64
2023/01/24 10:20:47;;;;;;;11.40;6.43;;;5.30;74.40;;;;;;5096074;28;20024;-64
2023/01/24 10:23:27;;;;;;;6.70;4.65;;;5.30;74.50;;;;;;5078344;28;20043;-63
2023/01/24 10:26:18;;;;;;;10.00;5.93;;;5.30;74.40;;;;;;5087764;28;20061;-63
2023/01/24 10:28:59;;;;;;;7.03;5.35;;;5.40;74.40;;;;;;5092950;28;20123;-63
2023/01/24 10:31:30;;;;;;;6.45;4.15;;;5.40;74.50;;;;;;5097960;28;20051;-63
2023/01/24 10:34:08;;;;;;;10.73;5.55;;;5.40;75.10;;;;;;5090922;28;20534;-63
2023/01/24 10:36:51;;;;;;;8.15;5.40;;;5.40;74.50;;;;;;5082685;28;20460;-64
2023/01/24 10:39:16;;;;;;;;;;;5.40;74.50;;;;;;5098559;28;20039;-62
2023/01/24 10:41:42;;;;;;;6.38;4.85;;;5.30;74.40;;;;;;5094125;28;19908;-61
2023/01/24 10:44:14;;;;;;;7.78;5.18;;;5.30;74.60;;;;;;5093732;28;20387;-60
2023/01/24 10:46:55;;;;;;;7.78;4.82;;;5.40;74.50;;;;;;5065359;28;20099;-65
2023/01/24 10:49:26;;;;;;;7.70;4.72;;;5.40;74.50;;;;;;5090386;28;20036;-60
2023/01/24 10:52:18;;;;;;;7.18;5.55;;;5.40;74.50;;;;;;5073657;28;20056;-60
2023/01/24 10:54:58;;;;;;;11.53;4.37;;;5.40;74.50;;;;;;5091041;28;20508;-65
2023/01/24 10:57:48;;;;;;;9.52;5.07;;;5.40;74.60;;;;;;5097212;28;20032;-61
2023/01/24 11:00:22;;;;;;;5.75;4.15;;;5.40;74.50;;;;;;5100326;28;20094;-60
2023/01/24 11:03:00;;;;;;;7.30;4.22;;;5.40;74.50;;;;;;5077550;28;20020;-60
2023/01/24 11:05:37;;;;;;;7.15;5.25;;;5.50;74.40;;;;;;5072043;28;20546;-60
2023/01/24 11:08:04;;;;;;;7.88;4.18;;;5.50;74.20;;;;;;5081599;28;20027;-65
2023/01/24 11:10:37;;;;;;;6.43;4.03;;;5.40;74.30;;;;;;5098372;28;20031;-65
2023/01/24 11:13:26;;;;;;;8.75;4.50;;;5.40;74.30;;;;;;5094965;28;20742;-65
2023/01/24 11:16:00;;;;;;;7.78;4.55;;;5.40;74.30;;;;;;5091496;28;20404;-60
2023/01/24 11:18:28;;;;;;;7.88;4.95;;;5.40;74.40;;;;;;5072947;28;20127;-60
2023/01/24 11:21:07;;;;;;;6.78;5.07;;;5.40;74.30;;;;;;5074540;28;20036;-65
2023/01/24 11:23:32;;;;;;;8.23;4.30;;;5.40;74.20;;;;;;5080263;28;20020;-65
2023/01/24 11:26:04;;;;;;;8.68;4.93;;;5.50;74.30;;;;;;5086307;28;20013;-60
2023/01/24 11:28:34;;;;;;;9.55;4.57;;;5.50;74.20;;;;;;5082962;28;20097;-60
2023/01/24 11:31:17;;;;;;;6.43;4.25;;;5.60;74.20;;;;;;5069448;28;20027;-60
2023/01/24 11:34:21;;;;;;;6.43;4.68;;;5.60;73.90;;;;;;5091849;28;20024;-60
2023/01/24 11:36:53;;;;;;;5.68;4.22;;;5.60;73.80;;;;;;5087427;28;20382;-61
2023/01/24 11:39:43;;;;;;;8.88;4.55;;;5.60;73.80;;;;;;5072903;28;20063;-62
2023/01/24 11:42:25;;;;;;;5.40;4.18;;;5.60;73.80;;;;;;5088885;28;20031;-65
2023/01/24 11:45:07;;;;;;;6.68;3.72;;;5.60;73.80;;;;;;5091445;28;20028;-65
2023/01/24 11:48:16;;;;;;;4.35;3.42;;;5.60;73.80;;;;;;5089775;28;20053;-65
2023/01/24 11:50:59;;;;;;;6.80;4.05;;;5.70;73.70;;;;;;5078371;28;20122;-65
2023/01/24 11:54:02;;;;;;;5.72;3.97;;;5.70;73.70;;;;;;5089808;28;20036;-65
2023/01/24 11:57:06;;;;;;;6.43;4.00;;;5.80;73.60;;;;;;5086707;28;20123;-65
2023/01/24 12:00:01;;;;;;;7.18;4.80;;;5.80;73.40;;;;;;5090627;28;20483;-65
2023/01/24 12:02:54;;;;;;;6.50;3.85;;;5.80;73.40;;;;;;5050412;28;20540;-59
2023/01/24 12:05:51;;;;;;;7.30;4.30;;;5.80;73.20;;;;;;5087252;28;20032;-60
2023/01/24 12:08:36;;;;;;;4.00;3.13;;;5.80;73.10;;;;;;5069761;28;20028;-59
2023/01/24 12:11:22;;;;;;;4.72;4.05;;;5.90;73.20;;;;;;5090123;28;20021;-61
2023/01/24 12:13:56;;;;;;;5.90;3.95;;;5.90;73.10;;;;;;5086954;28;20028;-66
2023/01/24 12:16:28;;;;;;;7.90;3.95;;;5.90;73.10;;;;;;5088804;28;20094;-66
2023/01/24 12:19:06;;;;;;;7.22;3.85;;;5.90;73.10;;;;;;5088158;28;20059;-65
2023/01/24 12:21:32;;;;;;;6.68;4.75;;;5.90;73.00;;;;;;5081072;28;20368;-65
2023/01/24 12:24:05;;;;;;;6.43;3.92;;;6.00;73.00;;;;;;5083011;28;20024;-66
2023/01/24 12:26:36;;;;;;;7.45;3.90;;;6.00;73.00;;;;;;5083193;28;20046;-66
2023/01/24 12:29:23;;;;;;;6.43;4.13;;;5.90;72.80;;;;;;5091568;28;20024;-66
2023/01/24 12:32:01;;;;;;;4.95;3.58;;;6.00;72.70;;;;;;5088939;28;20048;-60
2023/01/24 12:34:43;;;;;;;6.15;3.45;;;5.90;72.70;;;;;;5086568;28;20062;-61
2023/01/24 12:37:30;;;;;;;6.43;4.07;;;5.90;72.70;;;;;;5089649;28;20063;-61
2023/01/24 12:40:11;;;;;;;5.68;3.30;;;5.90;72.60;;;;;;5085639;28;20045;-61
2023/01/24 12:42:48;;;;;;;5.28;3.35;;;5.90;72.50;;;;;;5092252;28;20019;-66
2023/01/24 12:45:41;;;;;;;6.03;4.30;;;5.90;72.60;;;;;;5088943;28;20363;-60
2023/01/24 12:48:09;;;;;;;6.40;3.90;;;5.90;72.50;;;;;;5076186;28;20071;-66
2023/01/24 12:50:41;;;;;;;6.57;3.88;;;5.80;72.50;;;;;;5082763;28;20039;-66
2023/01/24 12:53:16;;;;;;;5.63;4.88;;;5.80;72.60;;;;;;5084375;28;20508;-66
2023/01/24 12:56:10;;;;;;;5.00;3.65;;;5.80;72.60;;;;;;5092025;28;20028;-61
2023/01/24 12:58:39;;;;;;;6.20;3.80;;;5.80;72.50;;;;;;5088067;28;20123;-61
2023/01/24 13:01:50;;;;;;;5.35;3.55;;;5.80;72.60;;;;;;5086904;28;20075;-61
2023/01/24 13:04:31;;;;;;;5.75;3.65;;;5.80;72.50;;;;;;5075409;28;20052;-66
2023/01/24 13:07:19;;;;;;;6.05;4.15;;;5.70;72.60;;;;;;5086483;28;20077;-66
2023/01/24 13:09:59;;;;;;;4.97;3.50;;;5.80;72.70;;;;;;5087891;28;20097;-61
2023/01/24 13:12:27;;;;;;;6.13;3.95;;;5.70;72.80;;;;;;5083993;28;20058;-66
2023/01/24 13:14:52;;;;;;;5.03;3.40;;;5.80;72.80;;;;;;5083750;28;20483;-66
2023/01/24 13:17:45;;;;;;;5.63;3.20;;;5.80;72.80;;;;;;5087469;28;20024;-61
2023/01/24 13:20:21;;;;;;;6.53;4.38;;;5.80;72.80;;;;;;5088962;28;20031;-61
2023/01/24 13:23:19;;;;;;;5.55;3.55;;;5.80;72.80;;;;;;5092235;28;20034;-66
2023/01/24 13:26:04;;;;;;;4.63;3.28;;;5.80;72.60;;;;;;5035234;28;20040;-60
2023/01/24 13:28:39;;;;;;;5.82;3.88;;;5.80;72.60;;;;;;5064734;28;20135;-66
2023/01/24 13:31:05;;;;;;;6.63;3.55;;;5.80;72.70;;;;;;5087701;28;20505;-61
2023/01/24 13:33:38;;;;;;;4.95;3.35;;;5.80;72.80;;;;;;5072201;28;20028;-60
2023/01/24 13:36:06;;;;;;;5.07;3.72;;;5.80;72.80;;;;;;5088547;28;20032;-61
2023/01/24 13:38:41;;;;;;;5.15;3.28;;;5.80;72.90;;;;;;5095478;28;20470;-61
2023/01/24 13:41:14;;;;;;;3.72;3.03;;;5.80;72.80;;;;;;5091390;28;20391;-61
2023/01/24 13:43:46;;;;;;;3.63;2.65;;;5.80;72.70;;;;;;5074419;28;20023;-61
2023/01/24 13:46:13;;;;;;;3.97;2.97;;;5.80;72.70;;;;;;5089702;28;20028;-61
2023/01/24 13:48:43;;;;;;;5.03;3.58;;;5.80;72.60;;;;;;5093759;28;20390;-61
2023/01/24 13:51:20;;;;;;;4.70;3.47;;;5.80;72.50;;;;;;5089814;28;20040;-61
2023/01/24 13:54:19;;;;;;;5.47;3.83;;;5.80;73.20;;;;;;5079442;28;20086;-60
2023/01/24 13:57:24;;;;;;;5.07;3.33;;;5.80;72.60;;;;;;5097908;28;20050;-61
2023/01/24 14:00:17;;;;;;;5.03;3.22;;;5.70;72.60;;;;;;5006278;28;20077;-61